createdAt,value
2022-07-26T00:02:51.757Z,100022.38
2022-07-26T00:08:10.823Z,100013.22
2022-07-26T00:13:17.397Z,100004.53
2022-07-26T00:18:22.070Z,99989.53
2022-07-26T00:23:25.148Z,99981.31
2022-07-26T00:28:29.484Z,99971.69
2022-07-26T00:33:32.542Z,99981.88
2022-07-26T00:38:35.890Z,99967.19
2022-07-26T00:43:53.761Z,99971.03
2022-07-26T00:48:56.798Z,99973.97
2022-07-26T00:53:59.805Z,99963.94
2022-07-26T00:59:04.727Z,99963.22
2022-07-26T01:04:08.741Z,99980.06
2022-07-26T01:09:13.332Z,99968.50
2022-07-26T01:14:20.620Z,99960.06
2022-07-26T01:19:24.141Z,99947.06
2022-07-26T01:24:28.438Z,99946.97
2022-07-26T01:29:34.907Z,99946.78
2022-07-26T01:34:39.556Z,99949.06
2022-07-26T01:39:45.767Z,99946.44
2022-07-26T01:44:48.700Z,99950.03
2022-07-26T01:49:51.678Z,99950.88
2022-07-26T01:54:55.969Z,99944.34
2022-07-26T01:59:58.944Z,99944.78
2022-07-26T02:05:02.098Z,99955.25
2022-07-26T02:10:06.980Z,99950.56
2022-07-26T02:15:11.454Z,99927.28
2022-07-26T02:20:17.087Z,99923.19
2022-07-26T02:25:21.595Z,99925.94
2022-07-26T02:30:24.734Z,99920.56
2022-07-26T02:35:27.739Z,99923.53
2022-07-26T02:40:32.341Z,99923.53
2022-07-26T02:45:35.339Z,99901.19
2022-07-26T02:50:38.306Z,99899.00
2022-07-26T02:55:42.604Z,99902.22
2022-07-26T03:00:45.561Z,99880.97
2022-07-26T03:05:48.510Z,99887.41
2022-07-26T03:10:52.764Z,99871.13
2022-07-26T03:15:55.787Z,99871.50
2022-07-26T03:20:59.581Z,99892.44
2022-07-26T03:26:04.433Z,99880.56
2022-07-26T03:31:07.459Z,99869.81
2022-07-26T03:36:15.429Z,99874.50
2022-07-26T03:41:20.106Z,99880.38
2022-07-26T03:46:23.191Z,99887.41
2022-07-26T03:51:42.042Z,99875.41
2022-07-26T03:56:46.296Z,99864.03
2022-07-26T04:01:49.350Z,99853.41
2022-07-26T04:06:53.507Z,99851.69
2022-07-26T04:11:57.818Z,99851.59
2022-07-26T04:17:00.837Z,99844.94
2022-07-26T04:22:04.836Z,99833.50
2022-07-26T04:27:09.110Z,99817.59
2022-07-26T04:32:12.092Z,99815.31
2022-07-26T04:37:15.049Z,99827.31
2022-07-26T04:42:19.322Z,99833.91
2022-07-26T04:47:22.237Z,99830.22
2022-07-26T04:52:25.195Z,99835.31
2022-07-26T04:57:29.451Z,99814.59
2022-07-26T05:02:32.598Z,99826.84
2022-07-26T05:07:40.750Z,99832.03
2022-07-26T05:12:45.921Z,99829.09
2022-07-26T05:17:48.886Z,99827.13
2022-07-26T05:22:51.810Z,99822.25
2022-07-26T05:27:56.148Z,99817.75
2022-07-26T05:32:59.164Z,99810.78
2022-07-26T05:38:02.146Z,99802.38
2022-07-26T05:43:06.474Z,99793.97
2022-07-26T05:48:09.497Z,99786.72
2022-07-26T05:53:12.451Z,99783.88
2022-07-26T05:58:16.750Z,99792.94
2022-07-26T06:03:26.054Z,99801.91
2022-07-26T06:08:29.037Z,99795.19
2022-07-26T06:13:33.401Z,99798.38
2022-07-26T06:18:36.349Z,99782.59
2022-07-26T06:23:39.365Z,99779.06
2022-07-26T06:28:44.142Z,99779.28
2022-07-26T06:33:47.141Z,99768.44
2022-07-26T06:38:50.144Z,99770.06
2022-07-26T06:43:54.710Z,99763.84
2022-07-26T06:48:57.801Z,99756.97
2022-07-26T06:54:01.118Z,99754.47
2022-07-26T06:59:09.390Z,99749.53
2022-07-26T07:04:12.715Z,99737.56
2022-07-26T07:09:15.722Z,99727.44
2022-07-26T07:14:20.317Z,99738.63
2022-07-26T07:19:23.338Z,99762.91
2022-07-26T07:24:26.324Z,99756.34
2022-07-26T07:29:30.759Z,99755.69
2022-07-26T07:34:33.848Z,99779.50
2022-07-26T07:39:38.746Z,99766.91
2022-07-26T07:44:43.242Z,99746.63
2022-07-26T07:49:46.203Z,99764.28
2022-07-26T07:54:49.171Z,99737.59
2022-07-26T07:59:53.535Z,99747.88
2022-07-26T08:05:00.459Z,99740.34
2022-07-26T08:10:14.413Z,99740.63
2022-07-26T08:15:19.436Z,99750.00
2022-07-26T08:20:23.652Z,99748.44
2022-07-26T08:25:28.011Z,99750.66
2022-07-26T08:30:32.667Z,99745.25
2022-07-26T08:35:35.704Z,99743.06
2022-07-26T08:40:39.159Z,99731.84
2022-07-26T08:45:45.708Z,99739.19
2022-07-26T08:50:48.943Z,99731.69
2022-07-26T08:56:06.920Z,99730.94
2022-07-26T09:01:13.433Z,99735.25
2022-07-26T09:06:17.721Z,99741.75
2022-07-26T09:11:28.240Z,99748.53
2022-07-26T09:16:36.026Z,99743.66
2022-07-26T09:21:41.959Z,99746.66
2022-07-26T09:26:55.954Z,99764.50
2022-07-26T09:32:19.502Z,99766.13
2022-07-26T09:37:35.821Z,99770.78
2022-07-26T09:42:39.644Z,99766.25
2022-07-26T09:47:44.227Z,99767.41
2022-07-26T09:53:03.778Z,99773.91
2022-07-26T09:58:06.738Z,99772.66
2022-07-26T10:03:11.213Z,99775.56
2022-07-26T10:08:14.320Z,99771.19
2022-07-26T10:13:17.535Z,99769.28
2022-07-26T10:18:40.630Z,99779.09
2022-07-26T10:23:45.860Z,99769.53
2022-07-26T10:28:48.898Z,99779.88
2022-07-26T10:33:52.764Z,99784.09
2022-07-26T10:39:00.780Z,99789.22
2022-07-26T10:44:24.393Z,99785.56
2022-07-26T10:49:31.366Z,99795.53
2022-07-26T10:54:55.727Z,99797.41
2022-07-26T10:59:59.125Z,99794.56
2022-07-26T11:05:02.556Z,99813.47
2022-07-26T11:10:07.350Z,99818.50
2022-07-26T11:15:17.229Z,99827.19
2022-07-26T11:20:29.574Z,99825.41
2022-07-26T11:25:34.439Z,99839.97
2022-07-26T11:30:37.495Z,99848.59
2022-07-26T11:35:51.191Z,99858.41
2022-07-26T11:40:55.628Z,99872.69
2022-07-26T11:45:58.687Z,99878.91
2022-07-26T11:51:09.532Z,99884.13
2022-07-26T11:56:18.122Z,99886.53
2022-07-26T12:01:21.796Z,99887.91
2022-07-26T12:06:26.225Z,99894.44
2022-07-26T12:11:40.286Z,99894.16
2022-07-26T12:16:44.619Z,99906.28
2022-07-26T12:21:48.889Z,99920.13
2022-07-26T12:27:06.180Z,99912.47
2022-07-26T12:32:12.714Z,99906.19
2022-07-26T12:37:17.533Z,99922.25
2022-07-26T12:42:34.632Z,99921.16
2022-07-26T12:47:38.436Z,99947.44
2022-07-26T12:52:41.974Z,99945.50
2022-07-26T12:57:47.272Z,99943.97
2022-07-26T13:02:51.294Z,99927.97
2022-07-26T13:07:54.389Z,99951.22
2022-07-26T13:12:58.750Z,99964.25
2022-07-26T13:18:02.085Z,99982.75
2022-07-26T13:23:05.068Z,99964.47
2022-07-26T13:28:09.768Z,99989.25
2022-07-26T13:33:12.965Z,99997.50
2022-07-26T13:38:19.172Z,100016.13
2022-07-26T13:43:23.455Z,100024.31
2022-07-26T13:48:26.469Z,100016.94
2022-07-26T13:53:30.477Z,100004.78
2022-07-26T13:58:34.805Z,100007.78
2022-07-26T14:03:37.753Z,100000.50
2022-07-26T14:08:40.716Z,100003.91
2022-07-26T14:13:45.025Z,100008.75
2022-07-26T14:18:48.157Z,100008.34
2022-07-26T14:23:51.224Z,100009.41
2022-07-26T14:28:55.654Z,100009.97
2022-07-26T14:33:59.124Z,100015.63
2022-07-26T14:39:02.071Z,100025.84
2022-07-26T14:44:08.834Z,100018.84
2022-07-26T14:49:12.099Z,100020.25
2022-07-26T14:54:15.280Z,100024.41
2022-07-26T14:59:19.743Z,100029.03
2022-07-26T15:04:22.691Z,100043.78
2022-07-26T15:09:25.628Z,100053.31
2022-07-26T15:14:29.926Z,100059.16
2022-07-26T15:19:32.943Z,100058.31
2022-07-26T15:24:40.066Z,100048.19
2022-07-26T15:29:44.788Z,100036.97
2022-07-26T15:34:49.313Z,100042.72
2022-07-26T15:39:54.664Z,100058.44
2022-07-26T15:44:59.104Z,100068.81
2022-07-26T15:50:03.008Z,100066.34
2022-07-26T15:55:06.592Z,100072.88
2022-07-26T16:00:12.281Z,100077.88
2022-07-26T16:05:15.570Z,100078.59
2022-07-26T16:10:18.676Z,100091.00
2022-07-26T16:15:23.015Z,100093.06
2022-07-26T16:20:26.071Z,100108.81
2022-07-26T16:25:29.170Z,100114.00
2022-07-26T16:30:33.539Z,100118.34
2022-07-26T16:35:36.600Z,100120.47
2022-07-26T16:40:39.604Z,100127.25
2022-07-26T16:45:43.959Z,100138.03
2022-07-26T16:50:46.962Z,100142.41
2022-07-26T16:55:52.010Z,100143.00
2022-07-26T17:00:56.456Z,100139.66
2022-07-26T17:06:06.017Z,100155.59
2022-07-26T17:11:09.555Z,100142.31
2022-07-26T17:16:13.987Z,100133.56
2022-07-26T17:21:17.011Z,100142.00
2022-07-26T17:26:20.807Z,100139.09
2022-07-26T17:31:25.177Z,100127.44
2022-07-26T17:36:29.873Z,100125.78
2022-07-26T17:41:33.631Z,100128.03
2022-07-26T17:46:38.244Z,100115.78
2022-07-26T17:51:41.570Z,100120.81
2022-07-26T17:56:44.559Z,100113.84
2022-07-26T18:01:50.398Z,100109.31
2022-07-26T18:06:56.931Z,100104.59
2022-07-26T18:11:59.914Z,100110.06
2022-07-26T18:17:05.222Z,100106.84
2022-07-26T18:22:08.330Z,100107.94
2022-07-26T18:27:11.337Z,100107.22
2022-07-26T18:32:16.245Z,100108.38
2022-07-26T18:37:19.273Z,100111.81
2022-07-26T18:42:22.240Z,100112.22
2022-07-26T18:47:26.613Z,100109.31
2022-07-26T18:52:32.558Z,100114.69
2022-07-26T18:57:36.390Z,100114.50
2022-07-26T19:02:40.743Z,100115.34
2022-07-26T19:07:43.771Z,100120.22
2022-07-26T19:12:48.440Z,100121.25
2022-07-26T19:17:52.854Z,100119.38
2022-07-26T19:22:55.861Z,100121.91
2022-07-26T19:27:58.852Z,100119.38
2022-07-26T19:33:03.143Z,100113.50
2022-07-26T19:38:06.156Z,100113.56
2022-07-26T19:43:09.508Z,100112.28
2022-07-26T19:48:13.850Z,100112.72
2022-07-26T19:53:19.103Z,100119.03
2022-07-26T19:58:22.096Z,100101.81
2022-07-26T20:03:31.388Z,100096.28
2022-07-26T20:08:34.438Z,100107.94
2022-07-26T20:13:37.444Z,100106.59
2022-07-26T20:18:41.789Z,100118.16
2022-07-26T20:23:44.789Z,100117.16
2022-07-26T20:28:47.758Z,100110.84
2022-07-26T20:33:54.572Z,100115.44
2022-07-26T20:38:57.555Z,100115.78
2022-07-26T20:44:00.570Z,100118.75
2022-07-26T20:49:04.949Z,100127.44
2022-07-26T20:54:08.660Z,100123.09
2022-07-26T20:59:11.948Z,100130.25
2022-07-26T21:04:16.465Z,100132.34
2022-07-26T21:09:19.875Z,100138.16
2022-07-26T21:14:25.156Z,100130.84
2022-07-26T21:19:29.457Z,100131.75
2022-07-26T21:24:32.508Z,100137.63
2022-07-26T21:29:39.391Z,100137.72
2022-07-26T21:34:43.917Z,100138.56
2022-07-26T21:39:46.970Z,100137.88
2022-07-26T21:44:49.974Z,100144.44
2022-07-26T21:49:54.346Z,100144.19
2022-07-26T21:54:57.298Z,100133.97
2022-07-26T22:00:00.256Z,100148.00
2022-07-26T22:05:24.738Z,100139.94
2022-07-26T22:10:27.726Z,100143.06
2022-07-26T22:15:30.841Z,100143.16
2022-07-26T22:20:35.722Z,100151.41
2022-07-26T22:25:39.412Z,100155.72
2022-07-26T22:30:42.651Z,100153.00
2022-07-26T22:35:46.962Z,100156.56
2022-07-26T22:40:50.082Z,100152.91
2022-07-26T22:45:53.098Z,100155.50
2022-07-26T22:50:57.591Z,100151.53
2022-07-26T22:56:00.587Z,100153.97
2022-07-26T23:01:03.728Z,100152.25
2022-07-26T23:06:15.994Z,100152.44
2022-07-26T23:11:32.810Z,100149.25
2022-07-26T23:16:35.921Z,100155.78
2022-07-26T23:21:40.304Z,100167.13
2022-07-26T23:26:43.325Z,100171.72
2022-07-26T23:31:46.455Z,100175.88
2022-07-26T23:36:50.884Z,100176.06
2022-07-26T23:41:53.894Z,100176.19
2022-07-26T23:46:57.001Z,100170.78
2022-07-26T23:52:01.356Z,100166.75
2022-07-26T23:57:04.503Z,100176.66
